Terminal Aerodrome Forecast
Issued by NWS

Home | Current Version | Previous Version | Text Only | Print | Product List | Glossary On
Versions: 1 2 3 4 5 6 7 8 9 10 11 12 13 14 15 16 17 18 19 20 21 22 23 24 25
000
FTUS46 KMTR 180200 AAA
TAFSFO
TAF AMD
KSFO 180231Z 1803/1906 28015G25KT P6SM FEW015 SCT200
     FM180400 25008KT P6SM SCT015 SCT100
     FM180700 20006KT P6SM VCSH BKN015 BKN050
     FM181200 17008KT P6SM BKN020 OVC050 PROB30 1812/1820 -RA
     FM182000 24010KT P6SM SCT025 BKN050 PROB30 1820/1824 -RA
     FM190300 24007KT P6SM BKN030=

USA.gov is the U.S. government's official web portal to all federal, state and local government web resources and services.